Time;durP1;ratioP1;P1;durP2;ratioP2;P2;SDS_P1;SDS_P2;PMS_P1;PMS_P2;Temp;Humidity;BMP_temperature;BMP_pressure;BME280_temperature;BME280_humidity;BME280_pressure;Samples;Min_cycle;Max_cycle;Signal;HPM_P1;HPM_P2
2023/04/03 03:01:05;;;;;;;7.30;6.90;;;4.00;99.90;;;;;;5585287;23;20261;-77
2023/04/03 03:03:31;;;;;;;7.70;7.20;;;4.00;99.90;;;;;;4912121;29;20655;-78
2023/04/03 03:06:17;;;;;;;8.03;7.47;;;4.00;99.90;;;;;;4920201;29;20190;-77
2023/04/03 03:08:44;;;;;;;7.80;7.40;;;4.10;99.90;;;;;;4899383;29;20190;-77
2023/04/03 03:11:11;;;;;;;8.23;7.80;;;4.10;99.90;;;;;;4925201;29;20288;-76
2023/04/03 03:13:37;;;;;;;8.27;7.77;;;4.10;99.90;;;;;;4899905;29;20191;-79
2023/04/03 03:16:03;;;;;;;6.63;6.33;;;4.10;99.90;;;;;;4937417;23;20240;-76
2023/04/03 03:18:29;;;;;;;8.60;8.00;;;4.10;99.90;;;;;;4897463;29;20194;-76
2023/04/03 03:20:57;;;;;;;6.67;6.27;;;4.00;99.90;;;;;;4915191;29;20643;-76
2023/04/03 03:23:25;;;;;;;7.50;7.00;;;4.10;99.90;;;;;;4916161;29;20226;-76
2023/04/03 03:25:58;;;;;;;8.17;7.57;;;4.10;99.90;;;;;;4916113;29;20199;-78
2023/04/03 03:28:24;;;;;;;8.90;8.20;;;4.10;99.90;;;;;;4916131;29;20194;-76
2023/04/03 03:30:50;;;;;;;9.53;7.60;;;4.10;99.90;;;;;;4899416;29;20283;-76
2023/04/03 03:33:17;;;;;;;7.30;6.80;;;4.10;99.90;;;;;;4898667;29;20194;-76
2023/04/03 03:35:43;;;;;;;6.83;6.47;;;4.10;99.90;;;;;;4915910;29;20226;-76
2023/04/03 03:38:09;;;;;;;7.90;7.30;;;4.10;99.90;;;;;;4916092;29;20183;-76
2023/04/03 03:40:35;;;;;;;7.77;7.37;;;4.10;99.90;;;;;;4915596;29;20179;-76
2023/04/03 03:43:01;;;;;;;7.17;6.77;;;4.10;99.90;;;;;;4915334;29;20202;-76
2023/04/03 03:45:27;;;;;;;7.93;7.20;;;4.10;99.90;;;;;;4899110;29;20214;-77
2023/04/03 03:47:53;;;;;;;7.20;6.80;;;4.10;99.90;;;;;;4915643;29;20326;-77
2023/04/03 03:50:18;;;;;;;7.20;6.67;;;4.00;99.90;;;;;;4898524;29;20661;-77
2023/04/03 03:52:45;;;;;;;7.23;6.83;;;4.00;99.90;;;;;;4898790;29;20194;-77
2023/04/03 03:55:10;;;;;;;6.57;6.17;;;4.00;99.90;;;;;;4915145;29;20606;-77
2023/04/03 03:57:36;;;;;;;7.50;6.97;;;4.00;99.90;;;;;;4899869;29;20187;-77
2023/04/03 04:00:04;;;;;;;7.47;6.97;;;4.10;99.90;;;;;;4900637;29;20184;-77
2023/04/03 04:02:30;;;;;;;7.47;6.80;;;4.10;99.90;;;;;;4899558;29;20682;-77
2023/04/03 04:04:56;;;;;;;7.17;6.77;;;4.10;99.90;;;;;;4899988;29;20198;-79
2023/04/03 04:07:21;;;;;;;5.20;4.90;;;4.10;99.90;;;;;;4917171;29;20282;-77
2023/04/03 04:09:47;;;;;;;6.47;6.07;;;4.00;99.90;;;;;;4899463;29;20186;-77
2023/04/03 04:12:13;;;;;;;6.30;5.70;;;4.10;99.90;;;;;;4915552;29;20183;-77
2023/04/03 04:14:39;;;;;;;6.20;5.80;;;4.10;99.90;;;;;;4916502;29;20871;-77
2023/04/03 04:17:05;;;;;;;5.90;5.57;;;4.00;99.90;;;;;;4897689;29;20230;-77
2023/04/03 04:19:31;;;;;;;6.87;6.47;;;4.10;99.90;;;;;;4915979;29;20179;-77
2023/04/03 04:21:56;;;;;;;7.10;6.60;;;4.10;99.90;;;;;;4916658;29;20179;-78
2023/04/03 04:24:22;;;;;;;6.07;5.60;;;4.10;99.90;;;;;;4898118;29;20671;-76
2023/04/03 04:26:48;;;;;;;6.70;6.20;;;4.10;99.90;;;;;;4898550;29;20191;-76
2023/04/03 04:29:14;;;;;;;6.60;6.20;;;4.10;99.90;;;;;;4915111;29;20190;-68
2023/04/03 04:31:40;;;;;;;7.43;6.97;;;4.10;99.90;;;;;;4912204;29;20206;-68
2023/04/03 04:34:05;;;;;;;5.60;5.20;;;4.20;99.90;;;;;;4895741;29;20274;-69
2023/04/03 04:36:31;;;;;;;6.20;5.80;;;4.20;99.90;;;;;;4909546;29;20223;-69
2023/04/03 04:38:58;;;;;;;6.40;6.00;;;4.30;99.90;;;;;;4914348;29;20194;-68
2023/04/03 04:41:24;;;;;;;6.53;5.93;;;4.30;99.90;;;;;;4897598;29;20643;-72
2023/04/03 04:43:51;;;;;;;6.50;6.20;;;4.30;99.90;;;;;;4914814;29;20231;-73
2023/04/03 04:46:18;;;;;;;6.50;6.20;;;4.30;99.90;;;;;;4914557;29;20211;-71
2023/04/03 04:48:44;;;;;;;6.73;6.10;;;4.20;99.90;;;;;;4914100;29;20270;-71
2023/04/03 04:51:10;;;;;;;6.70;6.37;;;4.20;99.90;;;;;;4914578;29;20623;-71
2023/04/03 04:53:37;;;;;;;6.73;6.23;;;4.20;99.90;;;;;;4914680;29;20217;-71
2023/04/03 04:56:03;;;;;;;6.47;6.13;;;4.10;99.90;;;;;;4897448;29;20245;-71
2023/04/03 04:58:29;;;;;;;6.60;6.10;;;4.10;99.90;;;;;;4916177;29;20267;-71
2023/04/03 05:01:13;;;;;;;7.07;6.57;;;4.00;99.90;;;;;;4914703;29;20281;-71
2023/04/03 05:03:39;;;;;;;6.40;5.97;;;4.10;99.90;;;;;;4914791;29;20270;-71
2023/04/03 05:06:05;;;;;;;7.03;6.43;;;4.00;99.90;;;;;;4914394;29;20797;-71
2023/04/03 05:08:31;;;;;;;6.80;6.50;;;3.90;99.90;;;;;;4914255;29;20179;-71
2023/04/03 05:10:57;;;;;;;7.37;6.77;;;3.90;99.90;;;;;;4899229;29;20222;-71
2023/04/03 05:13:23;;;;;;;8.03;7.57;;;3.80;99.90;;;;;;4916969;29;20186;-71
2023/04/03 05:15:49;;;;;;;8.07;7.47;;;3.80;99.90;;;;;;4899414;29;20588;-71
2023/04/03 05:18:15;;;;;;;7.07;6.70;;;3.70;99.90;;;;;;4916443;29;20179;-71
2023/04/03 05:20:41;;;;;;;7.70;7.20;;;3.70;99.90;;;;;;4914422;29;20529;-71
2023/04/03 05:23:06;;;;;;;7.40;7.00;;;3.60;99.90;;;;;;4914438;29;20183;-71
2023/04/03 05:25:32;;;;;;;6.70;6.30;;;3.50;99.90;;;;;;4897255;29;20211;-70
2023/04/03 05:27:58;;;;;;;6.77;6.37;;;3.50;99.90;;;;;;4913826;29;20191;-71
2023/04/03 05:30:24;;;;;;;5.83;5.53;;;3.50;99.90;;;;;;4897208;29;20215;-71
2023/04/03 05:32:50;;;;;;;6.67;6.27;;;3.60;99.90;;;;;;4897418;29;20278;-72
2023/04/03 05:35:15;;;;;;;6.97;6.57;;;3.70;99.90;;;;;;4914288;29;20852;-71
2023/04/03 05:37:41;;;;;;;7.10;6.70;;;3.70;99.90;;;;;;4897744;29;20187;-71
2023/04/03 05:40:08;;;;;;;7.43;6.73;;;3.80;99.90;;;;;;4913409;29;20194;-71
2023/04/03 05:42:34;;;;;;;7.00;6.50;;;3.70;99.90;;;;;;4915945;29;20215;-71
2023/04/03 05:45:00;;;;;;;7.87;7.37;;;3.80;99.90;;;;;;4917498;29;20306;-71
2023/04/03 05:47:26;;;;;;;6.77;6.27;;;3.80;99.90;;;;;;4917991;29;20179;-72
2023/04/03 05:49:52;;;;;;;7.73;7.13;;;3.80;99.90;;;;;;4900779;29;20179;-71
2023/04/03 05:52:26;;;;;;;7.50;7.07;;;3.90;99.90;;;;;;4917916;29;20270;-71
2023/04/03 05:54:52;;;;;;;6.93;6.53;;;4.00;99.90;;;;;;4900672;29;20211;-71
2023/04/03 05:57:18;;;;;;;6.63;6.33;;;4.00;99.90;;;;;;4917580;29;20651;-72
2023/04/03 05:59:45;;;;;;;7.33;6.83;;;4.10;99.90;;;;;;4900133;29;20190;-72
2023/04/03 06:02:16;;;;;;;6.53;6.23;;;4.10;99.90;;;;;;4917197;29;20183;-71
2023/04/03 06:04:42;;;;;;;7.97;7.27;;;4.30;99.90;;;;;;4917117;29;20218;-71
2023/04/03 06:07:13;;;;;;;7.00;6.60;;;4.30;99.90;;;;;;4917148;29;20715;-71
2023/04/03 06:09:39;;;;;;;6.40;5.90;;;4.40;99.90;;;;;;4893003;29;20188;-71
2023/04/03 06:12:04;;;;;;;6.47;6.07;;;4.40;99.90;;;;;;4916367;29;20246;-71
2023/04/03 06:14:30;;;;;;;5.83;5.53;;;4.50;99.90;;;;;;4915985;29;20198;-71
2023/04/03 06:16:56;;;;;;;5.70;5.30;;;4.50;99.90;;;;;;4916670;29;20625;-71
2023/04/03 06:19:22;;;;;;;6.00;5.60;;;4.50;99.90;;;;;;4915595;29;20190;-73
2023/04/03 06:21:48;;;;;;;6.47;6.03;;;4.40;99.90;;;;;;4916570;29;20182;-71
2023/04/03 06:24:15;;;;;;;5.63;5.23;;;4.50;99.90;;;;;;4899454;29;20270;-71
2023/04/03 06:26:41;;;;;;;6.53;6.13;;;4.60;99.90;;;;;;4905030;29;20239;-71
2023/04/03 06:29:08;;;;;;;6.73;6.23;;;4.70;99.90;;;;;;4899663;29;20566;-71
2023/04/03 06:31:36;;;;;;;8.43;7.83;;;4.80;99.90;;;;;;4908101;29;20179;-71
2023/04/03 06:34:02;;;;;;;10.60;9.60;;;4.90;99.90;;;;;;4918376;29;20186;-71
2023/04/03 06:36:28;;;;;;;9.00;8.33;;;5.00;99.90;;;;;;4922463;29;20210;-71
2023/04/03 06:38:54;;;;;;;7.93;7.53;;;4.90;99.90;;;;;;4916510;29;20193;-71
2023/04/03 06:41:21;;;;;;;9.73;9.07;;;4.90;99.90;;;;;;4916128;29;20190;-71
2023/04/03 06:43:47;;;;;;;7.37;6.97;;;4.80;99.90;;;;;;4916401;29;20191;-71
2023/04/03 06:46:18;;;;;;;7.47;7.07;;;4.80;99.90;;;;;;4915141;29;20217;-71
2023/04/03 06:48:45;;;;;;;9.43;8.50;;;5.00;99.90;;;;;;4914848;29;20215;-71
2023/04/03 06:51:18;;;;;;;8.97;8.47;;;5.10;99.90;;;;;;4898668;29;20199;-71
2023/04/03 06:53:45;;;;;;;10.20;9.60;;;5.20;99.90;;;;;;4915048;29;20190;-72
2023/04/03 06:56:11;;;;;;;10.03;9.33;;;5.20;99.90;;;;;;4916158;29;20240;-72
2023/04/03 06:58:37;;;;;;;9.90;9.20;;;5.40;99.90;;;;;;4905295;29;20183;-71
2023/04/03 07:01:03;;;;;;;9.77;9.17;;;5.30;99.90;;;;;;4903572;29;20247;-71
2023/04/03 07:03:29;;;;;;;10.37;9.67;;;5.30;99.90;;;;;;4899221;29;20274;-72
2023/04/03 07:05:55;;;;;;;8.57;7.97;;;5.50;99.90;;;;;;4915720;29;20742;-71
2023/04/03 07:08:23;;;;;;;9.63;9.03;;;5.50;99.90;;;;;;4915823;29;20206;-71
2023/04/03 07:10:49;;;;;;;10.63;10.03;;;5.30;99.90;;;;;;4899152;29;20701;-72
2023/04/03 07:13:15;;;;;;;11.17;10.53;;;5.30;99.90;;;;;;4915822;29;20193;-71
2023/04/03 07:15:41;;;;;;;9.27;8.70;;;5.50;99.90;;;;;;4915047;29;20221;-72
2023/04/03 07:18:07;;;;;;;10.03;9.50;;;5.50;99.90;;;;;;4915668;29;20191;-72
2023/04/03 07:20:33;;;;;;;10.40;9.43;;;5.50;99.90;;;;;;4923969;29;20266;-71
2023/04/03 07:23:01;;;;;;;9.00;8.37;;;5.50;99.90;;;;;;4918054;29;20206;-72
2023/04/03 07:25:28;;;;;;;7.93;7.53;;;5.60;99.90;;;;;;4931531;29;20289;-72
2023/04/03 07:27:54;;;;;;;8.80;8.20;;;5.60;99.90;;;;;;4915653;29;20281;-72
2023/04/03 07:30:21;;;;;;;8.07;7.57;;;5.70;99.90;;;;;;4915593;29;20624;-71
2023/04/03 07:32:46;;;;;;;9.57;7.03;;;5.70;99.90;;;;;;4916302;29;20548;-72
2023/04/03 07:35:13;;;;;;;7.63;7.13;;;5.60;99.90;;;;;;4914796;29;20214;-71
2023/04/03 07:37:38;;;;;;;8.97;8.47;;;5.50;99.90;;;;;;4915801;29;20175;-72
2023/04/03 07:40:06;;;;;;;7.57;7.17;;;5.70;99.90;;;;;;4898363;29;20544;-71
2023/04/03 07:42:32;;;;;;;6.97;6.37;;;5.90;99.90;;;;;;4915400;29;20666;-71
2023/04/03 07:44:58;;;;;;;6.60;6.20;;;5.90;99.90;;;;;;4915057;29;20215;-72
2023/04/03 07:47:24;;;;;;;5.87;5.47;;;6.00;99.90;;;;;;4897338;29;20557;-71
2023/04/03 07:49:50;;;;;;;6.00;5.60;;;5.90;99.90;;;;;;4913807;29;20187;-72
2023/04/03 07:52:15;;;;;;;6.03;5.73;;;6.00;99.90;;;;;;4915340;29;20178;-72
2023/04/03 07:54:42;;;;;;;5.80;5.60;;;5.90;99.90;;;;;;4918700;29;20202;-72
2023/04/03 07:57:08;;;;;;;5.67;5.37;;;5.90;99.90;;;;;;4918523;29;20337;-72
2023/04/03 07:59:33;;;;;;;6.20;5.87;;;5.80;99.90;;;;;;4917407;29;20796;-71
2023/04/03 08:01:59;;;;;;;8.00;6.20;;;5.90;99.90;;;;;;4916209;29;20321;-71
2023/04/03 08:04:25;;;;;;;5.20;4.80;;;5.90;99.90;;;;;;4914461;29;20227;-72
2023/04/03 08:06:52;;;;;;;6.70;6.30;;;6.00;99.90;;;;;;4914761;29;20635;-73
2023/04/03 08:09:19;;;;;;;5.40;5.10;;;6.40;99.90;;;;;;4897575;29;20330;-72
2023/04/03 08:11:45;;;;;;;5.10;4.80;;;7.00;99.90;;;;;;4897365;29;20191;-72
2023/04/03 08:14:16;;;;;;;6.80;6.27;;;7.30;99.90;;;;;;4913268;29;20551;-71
2023/04/03 08:16:43;;;;;;;5.93;5.43;;;7.10;99.90;;;;;;4913617;29;20577;-72
2023/04/03 08:19:10;;;;;;;5.73;5.33;;;6.90;99.90;;;;;;4914352;29;20187;-72
2023/04/03 08:21:36;;;;;;;7.70;7.10;;;7.50;99.90;;;;;;4920410;29;20175;-71
2023/04/03 08:24:03;;;;;;;8.07;7.67;;;7.50;99.90;;;;;;4915322;29;20354;-71
2023/04/03 08:26:29;;;;;;;6.13;5.63;;;7.90;99.90;;;;;;4906752;29;20692;-71
2023/04/03 08:28:54;;;;;;;5.77;5.27;;;8.30;99.90;;;;;;4914433;29;20202;-71
2023/04/03 08:31:20;;;;;;;6.23;5.73;;;8.20;99.90;;;;;;4926638;29;20197;-71
2023/04/03 08:33:46;;;;;;;4.67;4.47;;;7.60;99.90;;;;;;4904424;29;20222;-71
2023/04/03 08:36:27;;;;;;;5.20;5.00;;;8.00;99.90;;;;;;4897842;29;20223;-71
2023/04/03 08:38:55;;;;;;;6.33;6.03;;;8.00;99.90;;;;;;4897283;29;20234;-70
2023/04/03 08:41:32;;;;;;;5.73;5.40;;;8.10;99.90;;;;;;4914678;29;20180;-70
2023/04/03 08:44:22;;;;;;;6.00;5.57;;;8.30;99.90;;;;;;4899646;29;20182;-70
2023/04/03 08:47:24;;;;;;;6.07;5.50;;;8.50;99.90;;;;;;4914637;29;20202;-70
2023/04/03 08:50:01;;;;;;;5.33;5.10;;;8.10;99.90;;;;;;4897630;29;20182;-71
2023/04/03 08:52:48;;;;;;;6.87;6.27;;;8.20;99.90;;;;;;4914732;29;20666;-70
2023/04/03 08:55:32;;;;;;;6.33;5.93;;;8.50;99.90;;;;;;4914313;29;20265;-70
2023/04/03 08:58:05;;;;;;;7.50;7.03;;;8.50;99.90;;;;;;4897969;29;20187;-70
2023/04/03 09:00:49;;;;;;;7.43;6.93;;;8.60;99.90;;;;;;4914051;29;20234;-70
2023/04/03 09:03:17;;;;;;;5.93;5.73;;;8.70;99.90;;;;;;4914123;29;20226;-70
2023/04/03 09:06:10;;;;;;;7.90;7.23;;;8.70;99.90;;;;;;4914468;29;20348;-71
2023/04/03 09:09:07;;;;;;;6.30;5.60;;;8.40;99.90;;;;;;4896998;29;20183;-69
2023/04/03 09:11:51;;;;;;;6.20;5.77;;;8.00;99.90;;;;;;4914586;29;20182;-69
2023/04/03 09:14:36;;;;;;;7.43;6.93;;;7.80;99.90;;;;;;4914004;29;20659;-69
2023/04/03 09:17:33;;;;;;;6.93;6.43;;;7.70;99.90;;;;;;4952100;23;20288;-70
2023/04/03 09:20:21;;;;;;;5.47;5.07;;;7.70;99.90;;;;;;4916169;29;20534;-71
2023/04/03 09:22:48;;;;;;;5.80;5.43;;;7.60;99.90;;;;;;4919556;29;20189;-71
2023/04/03 09:25:35;;;;;;;5.20;4.80;;;7.50;99.90;;;;;;4932354;29;20294;-70
2023/04/03 09:28:02;;;;;;;5.70;5.30;;;7.50;99.90;;;;;;4935676;29;20201;-70
2023/04/03 09:30:29;;;;;;;5.70;5.40;;;7.50;99.90;;;;;;4919378;29;20244;-71
2023/04/03 09:32:56;;;;;;;5.73;5.47;;;7.50;99.90;;;;;;4932083;29;20226;-70
2023/04/03 09:35:30;;;;;;;6.93;6.50;;;7.60;99.90;;;;;;4918054;29;20226;-71
2023/04/03 09:38:11;;;;;;;6.13;5.57;;;7.60;99.90;;;;;;4918148;29;20225;-70
2023/04/03 09:40:44;;;;;;;6.37;5.80;;;7.80;99.90;;;;;;4917543;29;20186;-71
2023/04/03 09:43:30;;;;;;;6.00;5.63;;;7.60;99.90;;;;;;4911916;29;20184;-70
2023/04/03 09:46:16;;;;;;;6.17;5.83;;;7.50;99.90;;;;;;4888172;29;20206;-71
2023/04/03 09:49:12;;;;;;;6.70;6.30;;;7.40;99.90;;;;;;4900454;29;20194;-70
2023/04/03 09:51:38;;;;;;;5.60;5.30;;;7.20;99.90;;;;;;4874240;29;20206;-71
2023/04/03 09:54:31;;;;;;;4.73;4.57;;;7.30;99.90;;;;;;4910969;29;20690;-71
2023/04/03 09:57:09;;;;;;;5.10;4.90;;;7.30;99.90;;;;;;4917733;29;20696;-70
2023/04/03 09:59:43;;;;;;;6.03;5.53;;;7.30;99.90;;;;;;4916884;29;20265;-71
2023/04/03 10:02:35;;;;;;;5.73;5.33;;;7.50;99.90;;;;;;4917825;29;20217;-71
2023/04/03 10:05:03;;;;;;;5.93;5.43;;;7.60;99.90;;;;;;4891152;29;20207;-71
2023/04/03 10:07:31;;;;;;;7.03;6.53;;;7.80;99.90;;;;;;4901227;29;20194;-71
2023/04/03 10:10:01;;;;;;;6.60;6.30;;;7.70;99.90;;;;;;4914792;29;20191;-70
2023/04/03 10:12:27;;;;;;;6.73;6.33;;;7.50;99.90;;;;;;4921088;29;20186;-69
2023/04/03 10:14:52;;;;;;;8.30;7.47;;;7.40;99.90;;;;;;4915913;29;20187;-70
2023/04/03 10:17:28;;;;;;;7.50;7.10;;;7.30;99.90;;;;;;4917423;29;20761;-71
2023/04/03 10:20:06;;;;;;;5.80;5.40;;;7.30;99.90;;;;;;4916908;29;20245;-70
2023/04/03 10:22:48;;;;;;;5.30;5.00;;;7.30;99.90;;;;;;4899817;29;20191;-69
2023/04/03 10:25:23;;;;;;;6.47;6.10;;;7.40;99.90;;;;;;4916756;29;20715;-71
2023/04/03 10:27:49;;;;;;;6.17;5.83;;;7.80;99.90;;;;;;4923432;29;20193;-74
2023/04/03 10:30:31;;;;;;;5.77;5.37;;;8.10;99.90;;;;;;4935321;29;20190;-72
2023/04/03 10:33:12;;;;;;;5.17;4.87;;;8.00;99.90;;;;;;4929917;29;20196;-77
2023/04/03 10:35:50;;;;;;;5.33;5.13;;;7.70;99.90;;;;;;4898862;29;20320;-73
2023/04/03 10:38:43;;;;;;;5.00;4.80;;;7.50;99.90;;;;;;4915939;29;20647;-72
2023/04/03 10:41:27;;;;;;;4.70;4.50;;;7.30;99.90;;;;;;4917314;29;20580;-72
2023/04/03 10:44:07;;;;;;;5.00;4.80;;;7.20;99.90;;;;;;4889146;29;20183;-73
2023/04/03 10:46:58;;;;;;;4.63;4.43;;;7.30;99.90;;;;;;4897812;29;20218;-72
2023/04/03 10:49:46;;;;;;;4.53;4.43;;;7.50;99.90;;;;;;4901198;29;20198;-72
2023/04/03 10:52:37;;;;;;;5.30;5.00;;;7.80;99.90;;;;;;4899474;29;20251;-73
2023/04/03 10:55:22;;;;;;;4.90;4.60;;;7.70;99.90;;;;;;4881988;29;20190;-73
2023/04/03 10:57:49;;;;;;;4.50;4.23;;;7.70;99.90;;;;;;4897795;29;20584;-73
2023/04/03 11:00:21;;;;;;;5.07;4.77;;;7.60;99.90;;;;;;4897427;29;20183;-73
2023/04/03 11:03:05;;;;;;;4.60;4.40;;;7.60;99.90;;;;;;4898320;29;20176;-73
2023/04/03 11:05:40;;;;;;;5.70;5.40;;;7.80;99.90;;;;;;4900801;29;20234;-73
2023/04/03 11:08:16;;;;;;;4.87;4.47;;;8.10;99.90;;;;;;4897774;29;20559;-73
2023/04/03 11:10:48;;;;;;;4.10;3.90;;;8.20;99.90;;;;;;4897434;29;20199;-73
2023/04/03 11:13:45;;;;;;;4.43;4.23;;;8.30;99.90;;;;;;4901447;29;20183;-73
2023/04/03 11:16:19;;;;;;;4.90;4.60;;;8.10;99.90;;;;;;4916202;29;20226;-73
2023/04/03 11:19:02;;;;;;;5.00;4.73;;;7.80;99.90;;;;;;4915985;29;20187;-73
2023/04/03 11:21:35;;;;;;;4.07;3.97;;;7.60;99.90;;;;;;4916181;29;20274;-73
2023/04/03 11:24:07;;;;;;;5.10;4.70;;;7.50;99.90;;;;;;4889526;29;20184;-74
2023/04/03 11:26:39;;;;;;;4.93;4.60;;;7.60;99.90;;;;;;4880863;29;20580;-73
2023/04/03 11:29:17;;;;;;;4.50;4.30;;;8.00;99.90;;;;;;4896854;29;20192;-73
2023/04/03 11:32:11;;;;;;;5.17;4.77;;;8.20;99.90;;;;;;4898889;29;20338;-73
2023/04/03 11:34:51;;;;;;;4.40;4.00;;;8.40;99.90;;;;;;4895713;29;20222;-73
2023/04/03 11:37:40;;;;;;;4.10;3.90;;;8.50;99.90;;;;;;4915827;29;20207;-73
2023/04/03 11:40:29;;;;;;;4.90;4.60;;;8.40;99.90;;;;;;4915218;29;20216;-73
2023/04/03 11:43:07;;;;;;;5.00;4.60;;;8.40;99.90;;;;;;4915139;29;20659;-72
2023/04/03 11:45:59;;;;;;;4.80;4.40;;;7.80;99.90;;;;;;4915404;29;20214;-72
2023/04/03 11:48:33;;;;;;;5.57;5.27;;;7.50;99.90;;;;;;4909064;29;20205;-72
2023/04/03 11:51:11;;;;;;;5.30;5.00;;;7.50;99.90;;;;;;4898549;29;20187;-73
2023/04/03 11:53:42;;;;;;;5.60;5.20;;;7.50;99.90;;;;;;4915136;29;20207;-73
2023/04/03 11:56:23;;;;;;;5.83;5.40;;;7.50;99.90;;;;;;4915206;29;20286;-73
2023/04/03 11:59:10;;;;;;;6.00;5.50;;;7.60;99.90;;;;;;4915482;29;20195;-73
2023/04/03 12:01:48;;;;;;;5.37;4.97;;;7.90;99.90;;;;;;4915422;29;20191;-71
2023/04/03 12:04:17;;;;;;;4.40;4.10;;;8.20;99.90;;;;;;4915035;29;20182;-71
2023/04/03 12:06:46;;;;;;;4.93;4.43;;;8.20;99.90;;;;;;4915434;29;20218;-71
2023/04/03 12:09:32;;;;;;;4.63;4.43;;;8.20;99.90;;;;;;4916007;29;20198;-71
2023/04/03 12:12:01;;;;;;;5.10;4.50;;;8.50;99.90;;;;;;4918825;29;20553;-71
2023/04/03 12:14:28;;;;;;;4.80;4.60;;;8.80;99.90;;;;;;4904300;29;20281;-71
2023/04/03 12:16:57;;;;;;;5.33;5.00;;;9.10;98.90;;;;;;4911684;29;20223;-70
2023/04/03 12:19:36;;;;;;;5.20;4.90;;;9.10;99.50;;;;;;4914923;29;20187;-71
2023/04/03 12:22:03;;;;;;;4.40;3.83;;;9.30;98.70;;;;;;4915577;29;20559;-71
2023/04/03 12:24:31;;;;;;;3.90;3.77;;;9.40;96.60;;;;;;4901190;29;20215;-71
2023/04/03 12:26:57;;;;;;;4.80;4.13;;;9.50;95.90;;;;;;4896813;29;20211;-71
2023/04/03 12:29:32;;;;;;;4.50;4.20;;;9.50;96.50;;;;;;4895927;29;20283;-71
2023/04/03 12:32:20;;;;;;;4.40;4.10;;;9.00;96.80;;;;;;4896716;29;20250;-71
2023/04/03 12:34:51;;;;;;;4.80;4.60;;;8.90;97.80;;;;;;4910469;29;20274;-71
2023/04/03 12:37:55;;;;;;;5.67;5.37;;;8.70;98.60;;;;;;4912385;29;20211;-72
2023/04/03 12:40:25;;;;;;;5.37;5.00;;;8.60;99.90;;;;;;4908317;29;20250;-71
2023/04/03 12:43:01;;;;;;;5.10;4.80;;;8.60;99.30;;;;;;4919875;29;20210;-71
2023/04/03 12:45:27;;;;;;;5.20;4.80;;;8.80;99.90;;;;;;4917113;29;20212;-72
2023/04/03 12:47:55;;;;;;;4.70;4.30;;;10.40;97.70;;;;;;4933602;29;20740;-71
2023/04/03 12:50:30;;;;;;;4.77;4.40;;;11.10;95.30;;;;;;4933640;29;20190;-71
2023/04/03 12:53:05;;;;;;;4.77;4.37;;;11.00;95.50;;;;;;4928909;29;20183;-71
2023/04/03 12:55:32;;;;;;;5.07;4.77;;;10.70;92.30;;;;;;4919344;29;20248;-71
2023/04/03 12:58:20;;;;;;;4.90;4.50;;;10.00;91.80;;;;;;4933644;29;20181;-71
2023/04/03 13:00:46;;;;;;;4.93;4.63;;;9.40;92.90;;;;;;4933387;29;20249;-71
2023/04/03 13:03:24;;;;;;;4.80;4.60;;;9.10;93.50;;;;;;4927277;29;20262;-71
2023/04/03 13:05:50;;;;;;;5.03;4.73;;;9.20;93.60;;;;;;4914849;29;20210;-71
2023/04/03 13:08:19;;;;;;;5.50;5.10;;;10.50;92.10;;;;;;4914456;29;20209;-71
2023/04/03 13:10:55;;;;;;;8.00;7.70;;;12.40;90.90;;;;;;4914617;29;20191;-71
2023/04/03 13:13:22;;;;;;;9.20;8.70;;;13.40;79.80;;;;;;4909172;29;20184;-71
2023/04/03 13:15:50;;;;;;;9.53;8.97;;;13.00;80.50;;;;;;4895459;29;20264;-71
2023/04/03 13:18:42;;;;;;;9.40;8.20;;;11.70;81.10;;;;;;4879234;29;20200;-72
2023/04/03 13:21:20;;;;;;;5.40;5.10;;;10.30;85.90;;;;;;4893466;29;20205;-71
2023/04/03 13:23:50;;;;;;;5.50;5.10;;;9.60;89.80;;;;;;4904981;29;20182;-71
2023/04/03 13:26:18;;;;;;;6.07;5.47;;;9.30;91.20;;;;;;4914578;29;20211;-71
2023/04/03 13:28:45;;;;;;;4.53;4.33;;;9.10;91.90;;;;;;4914500;29;20180;-71
2023/04/03 13:31:14;;;;;;;4.80;4.50;;;9.40;91.80;;;;;;4914562;29;20198;-71
2023/04/03 13:34:02;;;;;;;4.90;4.50;;;9.90;91.40;;;;;;4922569;29;20623;-70
2023/04/03 13:36:34;;;;;;;4.93;4.53;;;9.80;90.60;;;;;;4914454;29;20225;-71
2023/04/03 13:39:23;;;;;;;4.97;4.67;;;9.70;90.40;;;;;;4913689;29;20190;-71
2023/04/03 13:41:51;;;;;;;4.60;4.40;;;9.50;89.80;;;;;;4914689;29;20556;-71
2023/04/03 13:44:23;;;;;;;5.93;5.43;;;10.30;89.80;;;;;;4900851;29;20180;-72
2023/04/03 13:46:49;;;;;;;6.73;6.33;;;12.10;84.50;;;;;;4896095;29;20212;-71
2023/04/03 13:49:36;;;;;;;8.70;8.20;;;13.70;78.70;;;;;;4879610;29;20184;-71
2023/04/03 13:52:32;;;;;;;4.37;4.17;;;15.80;71.70;;;;;;4896290;29;20199;-71
2023/04/03 13:55:02;;;;;;;4.43;4.23;;;15.40;65.00;;;;;;4896312;29;20278;-71
2023/04/03 13:57:28;;;;;;;4.90;4.60;;;13.40;67.80;;;;;;4914267;29;20218;-71
2023/04/03 13:59:54;;;;;;;8.37;7.93;;;12.00;72.70;;;;;;4913731;29;20191;-71
2023/04/03 14:02:32;;;;;;;8.60;8.10;;;10.90;77.40;;;;;;4902634;29;20651;-71
2023/04/03 14:05:01;;;;;;;6.33;5.90;;;9.90;83.10;;;;;;4881086;29;20324;-71
2023/04/03 14:07:30;;;;;;;5.27;4.93;;;9.70;85.20;;;;;;4898545;29;20186;-71
2023/04/03 14:09:56;;;;;;;6.30;5.77;;;9.80;86.40;;;;;;4898027;29;20198;-71
2023/04/03 14:12:36;;;;;;;5.27;4.97;;;9.60;84.60;;;;;;4895536;29;20272;-71
2023/04/03 14:15:05;;;;;;;5.57;5.27;;;9.30;83.10;;;;;;4916735;29;20689;-71
2023/04/03 14:17:31;;;;;;;5.63;5.23;;;9.20;84.80;;;;;;4917660;29;20222;-71
2023/04/03 14:19:58;;;;;;;4.37;4.20;;;9.30;84.60;;;;;;4903504;29;20193;-72
2023/04/03 14:22:28;;;;;;;4.50;4.30;;;9.50;83.10;;;;;;4922344;29;20206;-71
2023/04/03 14:24:55;;;;;;;5.03;4.80;;;9.20;83.30;;;;;;4899796;29;20641;-71
2023/04/03 14:27:22;;;;;;;5.63;5.33;;;8.80;85.80;;;;;;4917355;29;20588;-71
2023/04/03 14:29:50;;;;;;;5.70;5.20;;;8.60;85.40;;;;;;4916952;29;20198;-71
2023/04/03 14:32:18;;;;;;;4.97;4.67;;;8.50;88.90;;;;;;4889548;29;20747;-71
2023/04/03 14:34:44;;;;;;;5.10;4.80;;;8.50;89.30;;;;;;4881604;29;20198;-71
2023/04/03 14:37:16;;;;;;;4.90;4.60;;;8.60;88.30;;;;;;4881271;29;20764;-71
2023/04/03 14:39:42;;;;;;;4.73;4.53;;;8.80;89.50;;;;;;4881058;29;20199;-71
2023/04/03 14:42:19;;;;;;;4.97;4.67;;;8.90;88.30;;;;;;4897308;29;20722;-71
2023/04/03 14:44:45;;;;;;;5.27;4.90;;;9.00;87.80;;;;;;4917682;29;20660;-71
2023/04/03 14:47:14;;;;;;;5.20;4.80;;;8.90;88.20;;;;;;4901636;29;20214;-72
2023/04/03 14:49:40;;;;;;;5.33;4.93;;;8.80;87.90;;;;;;4917654;29;20187;-71
2023/04/03 14:52:06;;;;;;;5.83;5.23;;;8.80;89.50;;;;;;4884953;29;20187;-72
2023/04/03 14:54:32;;;;;;;5.33;5.00;;;8.70;88.40;;;;;;4898616;29;20198;-72
2023/04/03 14:57:00;;;;;;;5.33;5.03;;;8.40;90.10;;;;;;4882815;29;20223;-71
2023/04/03 14:59:27;;;;;;;4.97;4.67;;;8.40;90.50;;;;;;4882724;29;20270;-71
2023/04/03 15:01:52;;;;;;;5.43;5.03;;;9.90;88.90;;;;;;4912002;29;20277;-71
2023/04/03 15:04:20;;;;;;;6.77;6.27;;;12.10;80.40;;;;;;4916512;29;20274;-72
2023/04/03 15:06:47;;;;;;;7.47;7.07;;;13.60;76.70;;;;;;4916676;29;20207;-72
2023/04/03 15:09:23;;;;;;;4.87;4.57;;;15.10;70.70;;;;;;4916301;29;20226;-72
2023/04/03 15:11:51;;;;;;;4.73;4.43;;;15.10;65.70;;;;;;4903306;29;20236;-71
2023/04/03 15:14:17;;;;;;;5.27;5.00;;;13.00;67.00;;;;;;4897374;29;20203;-71
2023/04/03 15:16:43;;;;;;;8.47;8.07;;;11.40;70.00;;;;;;4940600;23;20280;-70
2023/04/03 15:19:10;;;;;;;8.03;7.63;;;10.10;74.90;;;;;;4934404;29;20186;-70
2023/04/03 15:21:37;;;;;;;6.70;6.40;;;9.10;78.40;;;;;;4917415;29;20343;-70
2023/04/03 15:24:04;;;;;;;5.73;5.53;;;8.70;79.50;;;;;;4935014;29;20190;-70
2023/04/03 15:26:31;;;;;;;5.53;5.17;;;8.60;79.40;;;;;;4908156;29;20215;-70
2023/04/03 15:28:57;;;;;;;5.50;5.03;;;8.60;79.50;;;;;;4915747;29;20185;-70
2023/04/03 15:31:23;;;;;;;5.00;4.60;;;8.80;79.30;;;;;;4906138;29;20232;-70
2023/04/03 15:33:49;;;;;;;7.40;6.90;;;10.60;79.20;;;;;;4897074;29;20660;-70
2023/04/03 15:36:15;;;;;;;6.40;5.90;;;13.20;71.60;;;;;;4897062;29;20241;-70
2023/04/03 15:38:41;;;;;;;5.67;5.37;;;13.90;65.90;;;;;;4880053;29;20255;-71
2023/04/03 15:41:07;;;;;;;6.67;6.37;;;12.80;66.50;;;;;;4916176;29;20201;-70
2023/04/03 15:43:33;;;;;;;8.67;8.17;;;11.20;70.60;;;;;;4920452;29;20530;-70
2023/04/03 15:46:00;;;;;;;8.97;8.57;;;10.30;74.30;;;;;;4898834;29;20646;-71
2023/04/03 15:48:27;;;;;;;8.63;8.23;;;10.10;75.40;;;;;;4915667;29;20179;-71
2023/04/03 15:50:53;;;;;;;8.03;7.30;;;9.80;75.50;;;;;;4916354;29;20198;-72
2023/04/03 15:53:19;;;;;;;8.10;7.60;;;9.10;76.00;;;;;;4917709;29;20249;-71
2023/04/03 15:55:45;;;;;;;6.53;6.13;;;8.60;77.40;;;;;;4915531;29;20226;-70
2023/04/03 15:58:10;;;;;;;5.73;5.43;;;8.30;78.30;;;;;;4918650;29;20191;-70
2023/04/03 16:00:37;;;;;;;5.27;4.87;;;8.10;79.40;;;;;;4931621;29;20183;-72
2023/04/03 16:03:10;;;;;;;5.83;5.53;;;8.00;80.50;;;;;;4900839;29;20547;-70
2023/04/03 16:05:38;;;;;;;6.40;5.80;;;8.30;81.70;;;;;;4912339;29;20308;-70
2023/04/03 16:08:05;;;;;;;6.80;6.20;;;9.50;79.10;;;;;;4919970;29;20198;-71
2023/04/03 16:10:31;;;;;;;5.50;5.00;;;9.70;78.70;;;;;;4913116;29;20191;-72
2023/04/03 16:12:56;;;;;;;6.00;5.60;;;9.60;76.30;;;;;;4915224;29;20187;-72
2023/04/03 16:15:24;;;;;;;6.20;5.87;;;9.70;77.70;;;;;;4898014;29;20191;-76